sensor_id;sensor_type;location;lat;lon;timestamp;P1;durP1;ratioP1;P2;durP2;ratioP2
74577;SDS011;63173;49.086;33.418;2022-10-17T00:00:25;16.95;;;7.68;;
74577;SDS011;63173;49.086;33.418;2022-10-17T00:02:50;15.75;;;7.18;;
74577;SDS011;63173;49.086;33.418;2022-10-17T00:05:19;17.35;;;7.78;;
74577;SDS011;63173;49.086;33.418;2022-10-17T00:07:44;14.23;;;7.57;;
74577;SDS011;63173;49.086;33.418;2022-10-17T00:10:10;22.02;;;7.68;;
74577;SDS011;63173;49.086;33.418;2022-10-17T00:12:35;17.35;;;7.65;;
74577;SDS011;63173;49.086;33.418;2022-10-17T00:15:04;14.00;;;7.25;;
74577;SDS011;63173;49.086;33.418;2022-10-17T00:17:30;18.63;;;7.65;;
74577;SDS011;63173;49.086;33.418;2022-10-17T00:19:59;18.25;;;8.05;;
74577;SDS011;63173;49.086;33.418;2022-10-17T00:22:25;15.88;;;7.15;;
74577;SDS011;63173;49.086;33.418;2022-10-17T00:24:51;13.85;;;7.28;;
74577;SDS011;63173;49.086;33.418;2022-10-17T00:27:16;14.77;;;7.20;;
74577;SDS011;63173;49.086;33.418;2022-10-17T00:29:42;18.17;;;7.57;;
74577;SDS011;63173;49.086;33.418;2022-10-17T00:32:07;17.55;;;8.02;;
74577;SDS011;63173;49.086;33.418;2022-10-17T00:34:33;15.48;;;7.97;;
74577;SDS011;63173;49.086;33.418;2022-10-17T00:36:58;14.68;;;7.75;;
74577;SDS011;63173;49.086;33.418;2022-10-17T00:39:23;17.23;;;8.48;;
74577;SDS011;63173;49.086;33.418;2022-10-17T00:41:49;17.73;;;7.97;;
74577;SDS011;63173;49.086;33.418;2022-10-17T00:47:02;19.65;;;8.45;;
74577;SDS011;63173;49.086;33.418;2022-10-17T00:49:32;20.83;;;9.48;;
74577;SDS011;63173;49.086;33.418;2022-10-17T00:52:10;17.58;;;8.98;;
74577;SDS011;63173;49.086;33.418;2022-10-17T00:54:41;21.80;;;10.23;;
74577;SDS011;63173;49.086;33.418;2022-10-17T00:57:12;21.65;;;10.40;;
74577;SDS011;63173;49.086;33.418;2022-10-17T00:59:39;22.50;;;10.48;;
74577;SDS011;63173;49.086;33.418;2022-10-17T01:02:13;19.25;;;9.30;;
74577;SDS011;63173;49.086;33.418;2022-10-17T01:04:42;19.40;;;9.52;;
74577;SDS011;63173;49.086;33.418;2022-10-17T01:07:10;17.15;;;8.15;;
74577;SDS011;63173;49.086;33.418;2022-10-17T01:09:36;24.02;;;9.82;;
74577;SDS011;63173;49.086;33.418;2022-10-17T01:20:52;17.42;;;8.43;;
74577;SDS011;63173;49.086;33.418;2022-10-17T01:26:24;21.25;;;9.32;;
74577;SDS011;63173;49.086;33.418;2022-10-17T01:31:56;40.78;;;17.02;;
74577;SDS011;63173;49.086;33.418;2022-10-17T01:34:29;39.95;;;17.23;;
74577;SDS011;63173;49.086;33.418;2022-10-17T01:37:01;31.85;;;13.82;;
74577;SDS011;63173;49.086;33.418;2022-10-17T01:39:57;34.75;;;14.82;;
74577;SDS011;63173;49.086;33.418;2022-10-17T01:42:36;41.30;;;16.35;;
74577;SDS011;63173;49.086;33.418;2022-10-17T01:48:10;43.92;;;18.05;;
74577;SDS011;63173;49.086;33.418;2022-10-17T01:50:41;35.22;;;13.90;;
74577;SDS011;63173;49.086;33.418;2022-10-17T01:53:12;31.48;;;14.10;;
74577;SDS011;63173;49.086;33.418;2022-10-17T01:55:43;25.08;;;11.02;;
74577;SDS011;63173;49.086;33.418;2022-10-17T01:58:13;20.35;;;8.40;;
74577;SDS011;63173;49.086;33.418;2022-10-17T02:00:44;20.08;;;8.95;;
74577;SDS011;63173;49.086;33.418;2022-10-17T02:03:13;21.35;;;9.75;;
74577;SDS011;63173;49.086;33.418;2022-10-17T02:05:43;19.50;;;9.63;;
74577;SDS011;63173;49.086;33.418;2022-10-17T02:08:09;20.08;;;9.32;;
74577;SDS011;63173;49.086;33.418;2022-10-17T02:10:40;22.88;;;9.88;;
74577;SDS011;63173;49.086;33.418;2022-10-17T02:24:44;24.75;;;9.90;;
74577;SDS011;63173;49.086;33.418;2022-10-17T02:27:16;20.30;;;9.70;;
74577;SDS011;63173;49.086;33.418;2022-10-17T02:29:44;20.45;;;9.27;;
74577;SDS011;63173;49.086;33.418;2022-10-17T02:32:23;20.05;;;9.52;;
74577;SDS011;63173;49.086;33.418;2022-10-17T02:34:56;24.67;;;9.57;;
74577;SDS011;63173;49.086;33.418;2022-10-17T02:37:26;21.77;;;9.43;;
74577;SDS011;63173;49.086;33.418;2022-10-17T02:39:54;20.73;;;9.65;;
74577;SDS011;63173;49.086;33.418;2022-10-17T02:42:22;23.58;;;10.48;;
74577;SDS011;63173;49.086;33.418;2022-10-17T02:44:50;21.25;;;9.27;;
74577;SDS011;63173;49.086;33.418;2022-10-17T02:47:18;20.83;;;9.65;;
74577;SDS011;63173;49.086;33.418;2022-10-17T02:49:50;20.75;;;9.80;;
74577;SDS011;63173;49.086;33.418;2022-10-17T02:52:20;24.73;;;10.30;;
74577;SDS011;63173;49.086;33.418;2022-10-17T02:55:12;23.13;;;10.63;;
74577;SDS011;63173;49.086;33.418;2022-10-17T02:58:17;20.25;;;9.63;;
74577;SDS011;63173;49.086;33.418;2022-10-17T03:00:40;24.77;;;10.73;;
74577;SDS011;63173;49.086;33.418;2022-10-17T03:03:17;22.20;;;10.88;;
74577;SDS011;63173;49.086;33.418;2022-10-17T03:05:44;23.45;;;10.90;;
74577;SDS011;63173;49.086;33.418;2022-10-17T03:08:09;24.17;;;10.48;;
74577;SDS011;63173;49.086;33.418;2022-10-17T03:10:35;22.05;;;9.80;;
74577;SDS011;63173;49.086;33.418;2022-10-17T03:13:01;23.98;;;9.68;;
74577;SDS011;63173;49.086;33.418;2022-10-17T03:15:26;19.52;;;9.88;;
74577;SDS011;63173;49.086;33.418;2022-10-17T03:17:51;23.23;;;10.98;;
74577;SDS011;63173;49.086;33.418;2022-10-17T03:20:17;26.58;;;10.85;;
74577;SDS011;63173;49.086;33.418;2022-10-17T03:22:42;26.20;;;10.50;;
74577;SDS011;63173;49.086;33.418;2022-10-17T03:25:07;22.17;;;9.85;;
74577;SDS011;63173;49.086;33.418;2022-10-17T03:27:33;23.15;;;10.95;;
74577;SDS011;63173;49.086;33.418;2022-10-17T03:29:58;25.27;;;10.25;;
74577;SDS011;63173;49.086;33.418;2022-10-17T03:32:24;26.02;;;10.88;;
74577;SDS011;63173;49.086;33.418;2022-10-17T03:34:49;20.55;;;9.75;;
74577;SDS011;63173;49.086;33.418;2022-10-17T03:37:53;27.13;;;10.93;;
74577;SDS011;63173;49.086;33.418;2022-10-17T03:40:19;28.10;;;12.27;;
74577;SDS011;63173;49.086;33.418;2022-10-17T03:42:45;27.88;;;10.20;;
74577;SDS011;63173;49.086;33.418;2022-10-17T03:45:10;27.73;;;10.77;;
74577;SDS011;63173;49.086;33.418;2022-10-17T03:47:35;21.23;;;9.98;;
74577;SDS011;63173;49.086;33.418;2022-10-17T03:50:01;23.55;;;10.68;;
74577;SDS011;63173;49.086;33.418;2022-10-17T03:52:26;30.30;;;10.85;;
74577;SDS011;63173;49.086;33.418;2022-10-17T03:54:52;20.95;;;10.88;;
74577;SDS011;63173;49.086;33.418;2022-10-17T03:57:18;23.10;;;10.10;;
74577;SDS011;63173;49.086;33.418;2022-10-17T03:59:43;23.27;;;10.65;;
74577;SDS011;63173;49.086;33.418;2022-10-17T04:02:09;21.95;;;10.32;;
74577;SDS011;63173;49.086;33.418;2022-10-17T04:04:34;25.45;;;11.32;;
74577;SDS011;63173;49.086;33.418;2022-10-17T04:07:00;31.75;;;12.27;;
74577;SDS011;63173;49.086;33.418;2022-10-17T04:09:25;30.70;;;12.32;;
74577;SDS011;63173;49.086;33.418;2022-10-17T04:11:51;24.95;;;12.82;;
74577;SDS011;63173;49.086;33.418;2022-10-17T04:14:16;30.73;;;12.50;;
74577;SDS011;63173;49.086;33.418;2022-10-17T04:16:42;32.35;;;13.65;;
74577;SDS011;63173;49.086;33.418;2022-10-17T04:19:11;57.72;;;28.02;;
74577;SDS011;63173;49.086;33.418;2022-10-17T04:21:37;27.35;;;13.13;;
74577;SDS011;63173;49.086;33.418;2022-10-17T04:24:03;30.98;;;11.93;;
74577;SDS011;63173;49.086;33.418;2022-10-17T04:26:29;25.88;;;11.50;;
74577;SDS011;63173;49.086;33.418;2022-10-17T04:28:54;28.40;;;11.00;;
74577;SDS011;63173;49.086;33.418;2022-10-17T04:31:20;26.30;;;10.55;;
74577;SDS011;63173;49.086;33.418;2022-10-17T04:33:46;21.73;;;9.60;;
74577;SDS011;63173;49.086;33.418;2022-10-17T04:36:13;20.95;;;9.88;;
74577;SDS011;63173;49.086;33.418;2022-10-17T04:38:41;22.05;;;9.77;;
74577;SDS011;63173;49.086;33.418;2022-10-17T04:41:07;22.35;;;10.27;;
74577;SDS011;63173;49.086;33.418;2022-10-17T04:43:36;21.30;;;8.82;;
74577;SDS011;63173;49.086;33.418;2022-10-17T04:46:03;22.35;;;9.88;;
74577;SDS011;63173;49.086;33.418;2022-10-17T04:48:31;18.55;;;9.15;;
74577;SDS011;63173;49.086;33.418;2022-10-17T04:51:00;18.13;;;8.57;;
74577;SDS011;63173;49.086;33.418;2022-10-17T04:53:29;21.15;;;9.63;;
74577;SDS011;63173;49.086;33.418;2022-10-17T04:55:55;20.02;;;9.02;;
74577;SDS011;63173;49.086;33.418;2022-10-17T04:58:21;17.17;;;8.80;;
74577;SDS011;63173;49.086;33.418;2022-10-17T05:00:47;18.30;;;7.80;;
74577;SDS011;63173;49.086;33.418;2022-10-17T05:03:13;25.15;;;10.30;;
74577;SDS011;63173;49.086;33.418;2022-10-17T05:05:38;18.13;;;7.55;;
74577;SDS011;63173;49.086;33.418;2022-10-17T05:08:05;18.83;;;8.20;;
74577;SDS011;63173;49.086;33.418;2022-10-17T05:10:41;21.88;;;7.65;;
74577;SDS011;63173;49.086;33.418;2022-10-17T05:13:08;25.40;;;9.60;;
74577;SDS011;63173;49.086;33.418;2022-10-17T05:15:35;25.25;;;9.88;;
74577;SDS011;63173;49.086;33.418;2022-10-17T05:18:02;21.13;;;8.90;;
74577;SDS011;63173;49.086;33.418;2022-10-17T05:20:28;25.25;;;8.98;;
74577;SDS011;63173;49.086;33.418;2022-10-17T05:22:53;22.20;;;9.40;;
74577;SDS011;63173;49.086;33.418;2022-10-17T05:25:19;16.88;;;8.73;;
74577;SDS011;63173;49.086;33.418;2022-10-17T05:27:45;23.30;;;9.95;;
74577;SDS011;63173;49.086;33.418;2022-10-17T05:30:10;23.17;;;9.50;;
74577;SDS011;63173;49.086;33.418;2022-10-17T05:32:36;25.70;;;10.60;;
74577;SDS011;63173;49.086;33.418;2022-10-17T05:35:02;24.30;;;11.73;;
74577;SDS011;63173;49.086;33.418;2022-10-17T05:37:28;24.42;;;11.60;;
74577;SDS011;63173;49.086;33.418;2022-10-17T05:39:55;30.98;;;12.25;;
74577;SDS011;63173;49.086;33.418;2022-10-17T05:42:20;25.75;;;10.82;;
74577;SDS011;63173;49.086;33.418;2022-10-17T05:44:46;25.60;;;10.93;;
74577;SDS011;63173;49.086;33.418;2022-10-17T05:47:11;25.65;;;11.05;;
74577;SDS011;63173;49.086;33.418;2022-10-17T05:49:39;32.95;;;11.13;;
74577;SDS011;63173;49.086;33.418;2022-10-17T05:52:05;26.67;;;10.68;;
74577;SDS011;63173;49.086;33.418;2022-10-17T05:54:31;28.08;;;10.27;;
74577;SDS011;63173;49.086;33.418;2022-10-17T05:56:56;24.33;;;9.57;;
74577;SDS011;63173;49.086;33.418;2022-10-17T05:59:23;22.13;;;10.40;;
74577;SDS011;63173;49.086;33.418;2022-10-17T06:01:49;21.08;;;10.18;;
74577;SDS011;63173;49.086;33.418;2022-10-17T06:04:15;23.25;;;9.48;;
74577;SDS011;63173;49.086;33.418;2022-10-17T06:06:40;20.80;;;9.98;;
74577;SDS011;63173;49.086;33.418;2022-10-17T06:09:06;26.27;;;9.88;;
74577;SDS011;63173;49.086;33.418;2022-10-17T06:11:32;23.35;;;10.88;;
74577;SDS011;63173;49.086;33.418;2022-10-17T06:16:26;23.13;;;11.00;;
74577;SDS011;63173;49.086;33.418;2022-10-17T06:18:52;26.85;;;12.32;;
74577;SDS011;63173;49.086;33.418;2022-10-17T06:21:18;25.45;;;12.48;;
74577;SDS011;63173;49.086;33.418;2022-10-17T06:26:11;48.25;;;21.35;;
74577;SDS011;63173;49.086;33.418;2022-10-17T06:28:37;39.60;;;18.27;;
74577;SDS011;63173;49.086;33.418;2022-10-17T06:31:03;31.00;;;13.43;;
74577;SDS011;63173;49.086;33.418;2022-10-17T06:33:32;29.38;;;12.80;;
74577;SDS011;63173;49.086;33.418;2022-10-17T06:35:58;27.77;;;11.27;;
74577;SDS011;63173;49.086;33.418;2022-10-17T06:38:24;36.20;;;11.57;;
74577;SDS011;63173;49.086;33.418;2022-10-17T06:40:49;26.25;;;10.15;;
74577;SDS011;63173;49.086;33.418;2022-10-17T06:43:14;24.95;;;9.85;;
74577;SDS011;63173;49.086;33.418;2022-10-17T06:45:40;22.23;;;9.43;;
74577;SDS011;63173;49.086;33.418;2022-10-17T06:48:06;25.60;;;10.10;;
74577;SDS011;63173;49.086;33.418;2022-10-17T06:50:32;26.40;;;11.27;;
74577;SDS011;63173;49.086;33.418;2022-10-17T06:52:58;29.50;;;13.50;;
74577;SDS011;63173;49.086;33.418;2022-10-17T06:55:25;31.40;;;15.40;;
74577;SDS011;63173;49.086;33.418;2022-10-17T06:57:52;35.65;;;17.02;;
74577;SDS011;63173;49.086;33.418;2022-10-17T07:00:19;28.83;;;13.25;;
74577;SDS011;63173;49.086;33.418;2022-10-17T07:02:44;28.90;;;13.27;;
74577;SDS011;63173;49.086;33.418;2022-10-17T07:05:10;29.30;;;13.23;;
74577;SDS011;63173;49.086;33.418;2022-10-17T07:07:36;30.25;;;13.50;;
74577;SDS011;63173;49.086;33.418;2022-10-17T07:10:02;30.88;;;13.30;;
74577;SDS011;63173;49.086;33.418;2022-10-17T07:12:32;29.33;;;13.98;;
74577;SDS011;63173;49.086;33.418;2022-10-17T07:14:59;30.10;;;13.82;;
74577;SDS011;63173;49.086;33.418;2022-10-17T07:17:24;26.50;;;12.60;;
74577;SDS011;63173;49.086;33.418;2022-10-17T07:19:49;31.73;;;11.85;;
74577;SDS011;63173;49.086;33.418;2022-10-17T07:22:15;25.52;;;10.88;;
74577;SDS011;63173;49.086;33.418;2022-10-17T07:24:40;22.13;;;10.20;;
74577;SDS011;63173;49.086;33.418;2022-10-17T07:27:06;21.65;;;10.90;;
74577;SDS011;63173;49.086;33.418;2022-10-17T07:29:31;21.52;;;9.75;;
74577;SDS011;63173;49.086;33.418;2022-10-17T07:31:57;27.92;;;11.18;;
74577;SDS011;63173;49.086;33.418;2022-10-17T07:34:22;21.58;;;11.02;;
74577;SDS011;63173;49.086;33.418;2022-10-17T07:36:51;22.98;;;10.32;;
74577;SDS011;63173;49.086;33.418;2022-10-17T07:39:17;21.73;;;10.02;;
74577;SDS011;63173;49.086;33.418;2022-10-17T07:41:43;25.15;;;9.88;;
74577;SDS011;63173;49.086;33.418;2022-10-17T07:44:08;22.00;;;8.95;;
74577;SDS011;63173;49.086;33.418;2022-10-17T07:46:34;23.50;;;9.88;;
74577;SDS011;63173;49.086;33.418;2022-10-17T07:48:59;21.45;;;8.93;;
74577;SDS011;63173;49.086;33.418;2022-10-17T07:51:25;20.13;;;9.45;;
74577;SDS011;63173;49.086;33.418;2022-10-17T07:53:51;22.45;;;8.57;;
74577;SDS011;63173;49.086;33.418;2022-10-17T07:56:17;22.90;;;9.43;;
74577;SDS011;63173;49.086;33.418;2022-10-17T07:58:42;19.88;;;8.32;;
74577;SDS011;63173;49.086;33.418;2022-10-17T08:01:08;21.08;;;9.63;;
74577;SDS011;63173;49.086;33.418;2022-10-17T08:03:39;18.35;;;8.43;;
74577;SDS011;63173;49.086;33.418;2022-10-17T08:06:08;20.45;;;8.38;;
74577;SDS011;63173;49.086;33.418;2022-10-17T08:08:33;18.67;;;8.10;;
74577;SDS011;63173;49.086;33.418;2022-10-17T08:11:03;21.73;;;8.60;;
74577;SDS011;63173;49.086;33.418;2022-10-17T08:13:30;20.52;;;8.45;;
74577;SDS011;63173;49.086;33.418;2022-10-17T08:16:00;36.38;;;8.68;;
74577;SDS011;63173;49.086;33.418;2022-10-17T08:18:26;119.32;;;14.13;;
74577;SDS011;63173;49.086;33.418;2022-10-17T08:20:51;20.45;;;7.50;;
74577;SDS011;63173;49.086;33.418;2022-10-17T08:23:16;19.92;;;8.23;;
74577;SDS011;63173;49.086;33.418;2022-10-17T08:25:42;16.38;;;8.40;;
74577;SDS011;63173;49.086;33.418;2022-10-17T08:28:07;19.65;;;7.40;;
74577;SDS011;63173;49.086;33.418;2022-10-17T08:30:33;19.33;;;6.47;;
74577;SDS011;63173;49.086;33.418;2022-10-17T08:32:58;16.73;;;8.52;;
74577;SDS011;63173;49.086;33.418;2022-10-17T08:35:23;20.27;;;8.07;;
74577;SDS011;63173;49.086;33.418;2022-10-17T08:37:49;42.85;;;10.18;;
74577;SDS011;63173;49.086;33.418;2022-10-17T08:40:24;17.88;;;7.78;;
74577;SDS011;63173;49.086;33.418;2022-10-17T08:45:39;19.98;;;7.78;;
74577;SDS011;63173;49.086;33.418;2022-10-17T08:48:17;19.15;;;7.35;;
74577;SDS011;63173;49.086;33.418;2022-10-17T08:50:48;19.92;;;7.82;;
74577;SDS011;63173;49.086;33.418;2022-10-17T08:56:19;19.85;;;7.30;;
74577;SDS011;63173;49.086;33.418;2022-10-17T08:58:47;21.17;;;7.20;;
74577;SDS011;63173;49.086;33.418;2022-10-17T09:03:50;16.20;;;7.57;;
74577;SDS011;63173;49.086;33.418;2022-10-17T09:06:27;12.27;;;6.07;;
74577;SDS011;63173;49.086;33.418;2022-10-17T09:11:55;24.40;;;7.38;;
74577;SDS011;63173;49.086;33.418;2022-10-17T09:20:12;43.78;;;5.85;;
74577;SDS011;63173;49.086;33.418;2022-10-17T09:23:00;11.75;;;4.65;;
74577;SDS011;63173;49.086;33.418;2022-10-17T09:25:40;10.18;;;4.30;;
74577;SDS011;63173;49.086;33.418;2022-10-17T09:28:22;14.75;;;5.43;;
74577;SDS011;63173;49.086;33.418;2022-10-17T09:30:56;13.52;;;6.00;;
74577;SDS011;63173;49.086;33.418;2022-10-17T09:33:29;12.75;;;5.65;;
74577;SDS011;63173;49.086;33.418;2022-10-17T09:36:07;14.90;;;6.13;;
74577;SDS011;63173;49.086;33.418;2022-10-17T09:38:44;12.07;;;5.20;;
74577;SDS011;63173;49.086;33.418;2022-10-17T09:41:14;11.10;;;5.00;;
74577;SDS011;63173;49.086;33.418;2022-10-17T09:43:42;12.48;;;5.32;;
74577;SDS011;63173;49.086;33.418;2022-10-17T09:49:00;15.45;;;5.97;;
74577;SDS011;63173;49.086;33.418;2022-10-17T09:51:30;12.52;;;5.47;;
74577;SDS011;63173;49.086;33.418;2022-10-17T09:53:58;8.68;;;4.47;;
74577;SDS011;63173;49.086;33.418;2022-10-17T09:56:27;18.60;;;5.82;;
74577;SDS011;63173;49.086;33.418;2022-10-17T09:58:55;15.85;;;5.82;;
74577;SDS011;63173;49.086;33.418;2022-10-17T10:04:08;10.98;;;5.20;;
74577;SDS011;63173;49.086;33.418;2022-10-17T10:06:39;12.98;;;5.25;;
74577;SDS011;63173;49.086;33.418;2022-10-17T10:09:06;13.93;;;5.47;;
74577;SDS011;63173;49.086;33.418;2022-10-17T10:11:47;18.98;;;7.13;;
74577;SDS011;63173;49.086;33.418;2022-10-17T10:14:36;9.35;;;4.32;;
74577;SDS011;63173;49.086;33.418;2022-10-17T10:17:05;10.30;;;4.47;;
74577;SDS011;63173;49.086;33.418;2022-10-17T10:19:50;10.63;;;5.25;;
74577;SDS011;63173;49.086;33.418;2022-10-17T10:22:17;8.93;;;5.13;;
74577;SDS011;63173;49.086;33.418;2022-10-17T10:24:44;11.77;;;4.68;;
74577;SDS011;63173;49.086;33.418;2022-10-17T10:27:16;12.00;;;4.95;;
74577;SDS011;63173;49.086;33.418;2022-10-17T10:29:49;11.70;;;4.85;;
74577;SDS011;63173;49.086;33.418;2022-10-17T10:34:56;10.57;;;5.85;;
74577;SDS011;63173;49.086;33.418;2022-10-17T10:37:39;10.23;;;4.72;;
74577;SDS011;63173;49.086;33.418;2022-10-17T10:40:16;9.38;;;5.22;;
74577;SDS011;63173;49.086;33.418;2022-10-17T10:42:51;13.40;;;4.47;;
74577;SDS011;63173;49.086;33.418;2022-10-17T10:45:24;17.58;;;5.30;;
74577;SDS011;63173;49.086;33.418;2022-10-17T10:47:51;9.82;;;4.68;;
74577;SDS011;63173;49.086;33.418;2022-10-17T10:53:40;8.95;;;4.55;;
74577;SDS011;63173;49.086;33.418;2022-10-17T10:56:07;10.63;;;4.78;;
74577;SDS011;63173;49.086;33.418;2022-10-17T10:58:54;8.63;;;4.47;;
74577;SDS011;63173;49.086;33.418;2022-10-17T11:12:50;10.65;;;4.15;;
74577;SDS011;63173;49.086;33.418;2022-10-17T11:21:31;7.60;;;4.25;;
74577;SDS011;63173;49.086;33.418;2022-10-17T11:24:24;12.98;;;4.32;;
74577;SDS011;63173;49.086;33.418;2022-10-17T11:26:56;11.18;;;4.40;;
74577;SDS011;63173;49.086;33.418;2022-10-17T11:29:29;7.72;;;4.20;;
74577;SDS011;63173;49.086;33.418;2022-10-17T11:31:56;9.40;;;5.00;;
74577;SDS011;63173;49.086;33.418;2022-10-17T11:34:28;16.70;;;7.78;;
74577;SDS011;63173;49.086;33.418;2022-10-17T11:37:01;10.73;;;4.80;;
74577;SDS011;63173;49.086;33.418;2022-10-17T11:42:29;10.40;;;4.05;;
74577;SDS011;63173;49.086;33.418;2022-10-17T11:45:00;9.27;;;4.25;;
74577;SDS011;63173;49.086;33.418;2022-10-17T11:55:33;9.98;;;4.30;;
74577;SDS011;63173;49.086;33.418;2022-10-17T12:06:15;10.25;;;3.63;;
74577;SDS011;63173;49.086;33.418;2022-10-17T12:11:51;8.57;;;3.63;;
74577;SDS011;63173;49.086;33.418;2022-10-17T12:22:48;8.93;;;3.92;;
74577;SDS011;63173;49.086;33.418;2022-10-17T12:25:19;15.20;;;4.68;;
74577;SDS011;63173;49.086;33.418;2022-10-17T12:27:47;7.40;;;3.85;;
74577;SDS011;63173;49.086;33.418;2022-10-17T12:30:16;8.52;;;4.10;;
74577;SDS011;63173;49.086;33.418;2022-10-17T12:32:57;9.90;;;4.30;;
74577;SDS011;63173;49.086;33.418;2022-10-17T12:35:45;15.73;;;4.40;;
74577;SDS011;63173;49.086;33.418;2022-10-17T12:38:22;10.85;;;3.95;;
74577;SDS011;63173;49.086;33.418;2022-10-17T12:40:53;9.30;;;4.15;;
74577;SDS011;63173;49.086;33.418;2022-10-17T12:51:08;9.43;;;4.57;;
74577;SDS011;63173;49.086;33.418;2022-10-17T12:56:37;11.82;;;4.35;;
74577;SDS011;63173;49.086;33.418;2022-10-17T13:01:39;9.60;;;3.70;;
74577;SDS011;63173;49.086;33.418;2022-10-17T13:04:09;6.40;;;3.08;;
74577;SDS011;63173;49.086;33.418;2022-10-17T13:06:37;8.95;;;2.97;;
74577;SDS011;63173;49.086;33.418;2022-10-17T13:12:09;9.25;;;2.92;;
74577;SDS011;63173;49.086;33.418;2022-10-17T13:14:39;12.25;;;4.32;;
74577;SDS011;63173;49.086;33.418;2022-10-17T13:17:13;18.65;;;4.60;;
74577;SDS011;63173;49.086;33.418;2022-10-17T13:19:46;11.05;;;4.25;;
74577;SDS011;63173;49.086;33.418;2022-10-17T13:22:32;12.48;;;4.90;;
74577;SDS011;63173;49.086;33.418;2022-10-17T13:25:05;13.18;;;4.78;;
74577;SDS011;63173;49.086;33.418;2022-10-17T13:27:38;11.68;;;3.80;;
74577;SDS011;63173;49.086;33.418;2022-10-17T13:30:26;7.38;;;3.60;;
74577;SDS011;63173;49.086;33.418;2022-10-17T13:32:58;10.40;;;3.60;;
74577;SDS011;63173;49.086;33.418;2022-10-17T13:35:34;6.90;;;3.60;;
74577;SDS011;63173;49.086;33.418;2022-10-17T13:38:03;11.30;;;4.22;;
74577;SDS011;63173;49.086;33.418;2022-10-17T13:40:37;9.07;;;3.67;;
74577;SDS011;63173;49.086;33.418;2022-10-17T13:43:08;26.30;;;8.00;;
74577;SDS011;63173;49.086;33.418;2022-10-17T13:45:44;22.20;;;5.80;;
74577;SDS011;63173;49.086;33.418;2022-10-17T13:48:17;17.10;;;6.15;;
74577;SDS011;63173;49.086;33.418;2022-10-17T13:50:49;12.52;;;4.78;;
74577;SDS011;63173;49.086;33.418;2022-10-17T13:55:59;15.95;;;5.47;;
74577;SDS011;63173;49.086;33.418;2022-10-17T13:58:29;19.48;;;6.03;;
74577;SDS011;63173;49.086;33.418;2022-10-17T14:01:15;16.88;;;5.18;;
74577;SDS011;63173;49.086;33.418;2022-10-17T14:03:42;20.25;;;5.80;;
74577;SDS011;63173;49.086;33.418;2022-10-17T14:06:28;19.52;;;5.95;;
74577;SDS011;63173;49.086;33.418;2022-10-17T14:09:05;8.82;;;4.45;;
74577;SDS011;63173;49.086;33.418;2022-10-17T14:11:41;11.55;;;5.20;;
74577;SDS011;63173;49.086;33.418;2022-10-17T14:14:19;50.95;;;27.02;;
74577;SDS011;63173;49.086;33.418;2022-10-17T14:16:47;33.85;;;12.38;;
74577;SDS011;63173;49.086;33.418;2022-10-17T14:22:33;21.40;;;9.48;;
74577;SDS011;63173;49.086;33.418;2022-10-17T14:24:44;28.85;;;12.00;;
74577;SDS011;63173;49.086;33.418;2022-10-17T14:29:54;24.77;;;8.82;;
74577;SDS011;63173;49.086;33.418;2022-10-17T14:32:24;30.05;;;7.40;;
74577;SDS011;63173;49.086;33.418;2022-10-17T14:34:52;20.02;;;7.05;;
74577;SDS011;63173;49.086;33.418;2022-10-17T14:39:58;17.33;;;9.38;;
74577;SDS011;63173;49.086;33.418;2022-10-17T14:42:24;25.02;;;8.65;;
74577;SDS011;63173;49.086;33.418;2022-10-17T14:44:51;38.58;;;9.00;;
74577;SDS011;63173;49.086;33.418;2022-10-17T14:47:25;19.65;;;6.72;;
74577;SDS011;63173;49.086;33.418;2022-10-17T14:50:05;24.35;;;8.60;;
74577;SDS011;63173;49.086;33.418;2022-10-17T14:52:31;37.53;;;8.60;;
74577;SDS011;63173;49.086;33.418;2022-10-17T14:54:59;23.17;;;8.30;;
74577;SDS011;63173;49.086;33.418;2022-10-17T14:57:43;21.45;;;8.27;;
74577;SDS011;63173;49.086;33.418;2022-10-17T15:00:16;23.63;;;9.25;;
74577;SDS011;63173;49.086;33.418;2022-10-17T15:02:44;30.52;;;10.90;;
74577;SDS011;63173;49.086;33.418;2022-10-17T15:05:10;31.45;;;10.23;;
74577;SDS011;63173;49.086;33.418;2022-10-17T15:07:36;30.63;;;10.75;;
74577;SDS011;63173;49.086;33.418;2022-10-17T15:10:02;23.20;;;9.80;;
74577;SDS011;63173;49.086;33.418;2022-10-17T15:12:28;30.73;;;10.25;;
74577;SDS011;63173;49.086;33.418;2022-10-17T15:14:55;29.27;;;8.88;;
74577;SDS011;63173;49.086;33.418;2022-10-17T15:17:24;26.75;;;8.93;;
74577;SDS011;63173;49.086;33.418;2022-10-17T15:19:54;15.02;;;7.10;;
74577;SDS011;63173;49.086;33.418;2022-10-17T15:22:21;18.05;;;7.82;;
74577;SDS011;63173;49.086;33.418;2022-10-17T15:24:47;20.95;;;7.85;;
74577;SDS011;63173;49.086;33.418;2022-10-17T15:27:16;19.63;;;7.40;;
74577;SDS011;63173;49.086;33.418;2022-10-17T15:29:43;15.43;;;6.80;;
74577;SDS011;63173;49.086;33.418;2022-10-17T15:32:09;17.70;;;7.30;;
74577;SDS011;63173;49.086;33.418;2022-10-17T15:34:34;14.50;;;6.40;;
74577;SDS011;63173;49.086;33.418;2022-10-17T15:37:00;21.52;;;7.57;;
74577;SDS011;63173;49.086;33.418;2022-10-17T15:39:25;16.92;;;7.20;;
74577;SDS011;63173;49.086;33.418;2022-10-17T15:41:51;17.85;;;6.28;;
74577;SDS011;63173;49.086;33.418;2022-10-17T15:44:17;16.65;;;6.25;;
74577;SDS011;63173;49.086;33.418;2022-10-17T15:46:42;15.55;;;5.60;;
74577;SDS011;63173;49.086;33.418;2022-10-17T15:49:12;12.60;;;5.28;;
74577;SDS011;63173;49.086;33.418;2022-10-17T15:51:40;11.75;;;4.22;;
74577;SDS011;63173;49.086;33.418;2022-10-17T15:54:06;18.58;;;4.85;;
74577;SDS011;63173;49.086;33.418;2022-10-17T15:56:33;17.50;;;9.52;;
74577;SDS011;63173;49.086;33.418;2022-10-17T15:59:01;15.05;;;5.50;;
74577;SDS011;63173;49.086;33.418;2022-10-17T16:01:35;12.93;;;5.43;;
74577;SDS011;63173;49.086;33.418;2022-10-17T16:04:01;10.70;;;5.55;;
74577;SDS011;63173;49.086;33.418;2022-10-17T16:06:27;16.42;;;7.85;;
74577;SDS011;63173;49.086;33.418;2022-10-17T16:08:53;14.05;;;5.25;;
74577;SDS011;63173;49.086;33.418;2022-10-17T16:13:50;14.95;;;5.55;;
74577;SDS011;63173;49.086;33.418;2022-10-17T16:16:19;15.02;;;4.70;;
74577;SDS011;63173;49.086;33.418;2022-10-17T16:18:46;10.95;;;4.40;;
74577;SDS011;63173;49.086;33.418;2022-10-17T16:21:12;14.73;;;5.22;;
74577;SDS011;63173;49.086;33.418;2022-10-17T16:23:40;16.50;;;6.05;;
74577;SDS011;63173;49.086;33.418;2022-10-17T16:26:07;11.55;;;5.25;;
74577;SDS011;63173;49.086;33.418;2022-10-17T16:28:35;15.35;;;5.47;;
74577;SDS011;63173;49.086;33.418;2022-10-17T16:31:04;13.50;;;6.22;;
74577;SDS011;63173;49.086;33.418;2022-10-17T16:33:37;13.75;;;5.90;;
74577;SDS011;63173;49.086;33.418;2022-10-17T16:36:03;14.00;;;6.20;;
74577;SDS011;63173;49.086;33.418;2022-10-17T16:38:28;14.30;;;6.10;;
74577;SDS011;63173;49.086;33.418;2022-10-17T16:40:54;11.70;;;5.70;;
74577;SDS011;63173;49.086;33.418;2022-10-17T16:43:25;14.55;;;6.97;;
74577;SDS011;63173;49.086;33.418;2022-10-17T16:45:51;16.98;;;6.68;;
74577;SDS011;63173;49.086;33.418;2022-10-17T16:48:16;15.25;;;6.88;;
74577;SDS011;63173;49.086;33.418;2022-10-17T16:50:41;15.13;;;6.95;;
74577;SDS011;63173;49.086;33.418;2022-10-17T16:53:07;14.63;;;6.63;;